sensor_id;sensor_type;location;lat;lon;timestamp;P1;durP1;ratioP1;P2;durP2;ratioP2
5343;SDS011;2694;48.954;8.928;2023-05-07T00:01:41;3.75;;;2.10;;
5343;SDS011;2694;48.954;8.928;2023-05-07T00:04:10;6.00;;;2.30;;
5343;SDS011;2694;48.954;8.928;2023-05-07T00:06:38;5.50;;;2.08;;
5343;SDS011;2694;48.954;8.928;2023-05-07T00:09:05;3.80;;;1.67;;
5343;SDS011;2694;48.954;8.928;2023-05-07T00:11:32;3.33;;;2.10;;
5343;SDS011;2694;48.954;8.928;2023-05-07T00:14:00;9.00;;;2.65;;
5343;SDS011;2694;48.954;8.928;2023-05-07T00:16:27;3.33;;;2.10;;
5343;SDS011;2694;48.954;8.928;2023-05-07T00:18:54;3.90;;;2.40;;
5343;SDS011;2694;48.954;8.928;2023-05-07T00:21:22;5.03;;;2.28;;
5343;SDS011;2694;48.954;8.928;2023-05-07T00:23:51;3.60;;;1.80;;
5343;SDS011;2694;48.954;8.928;2023-05-07T00:26:18;4.13;;;2.60;;
5343;SDS011;2694;48.954;8.928;2023-05-07T00:28:46;7.05;;;2.30;;
5343;SDS011;2694;48.954;8.928;2023-05-07T00:31:13;5.75;;;2.40;;
5343;SDS011;2694;48.954;8.928;2023-05-07T00:33:40;2.90;;;2.13;;
5343;SDS011;2694;48.954;8.928;2023-05-07T00:36:07;3.92;;;2.40;;
5343;SDS011;2694;48.954;8.928;2023-05-07T00:38:36;2.07;;;1.87;;
5343;SDS011;2694;48.954;8.928;2023-05-07T00:41:03;2.45;;;2.20;;
5343;SDS011;2694;48.954;8.928;2023-05-07T00:43:30;3.97;;;2.30;;
5343;SDS011;2694;48.954;8.928;2023-05-07T00:45:57;4.40;;;2.30;;
5343;SDS011;2694;48.954;8.928;2023-05-07T00:48:24;4.25;;;2.40;;
5343;SDS011;2694;48.954;8.928;2023-05-07T00:50:51;3.03;;;2.30;;
5343;SDS011;2694;48.954;8.928;2023-05-07T00:53:19;4.80;;;2.30;;
5343;SDS011;2694;48.954;8.928;2023-05-07T00:55:48;2.67;;;1.90;;
5343;SDS011;2694;48.954;8.928;2023-05-07T00:58:15;5.10;;;2.20;;
5343;SDS011;2694;48.954;8.928;2023-05-07T01:00:42;2.45;;;1.60;;
5343;SDS011;2694;48.954;8.928;2023-05-07T01:03:09;2.72;;;2.10;;
5343;SDS011;2694;48.954;8.928;2023-05-07T01:05:36;4.05;;;2.10;;
5343;SDS011;2694;48.954;8.928;2023-05-07T01:08:04;4.28;;;1.90;;
5343;SDS011;2694;48.954;8.928;2023-05-07T01:10:31;2.75;;;1.98;;
5343;SDS011;2694;48.954;8.928;2023-05-07T01:13:00;4.07;;;2.13;;
5343;SDS011;2694;48.954;8.928;2023-05-07T01:15:28;4.90;;;2.15;;
5343;SDS011;2694;48.954;8.928;2023-05-07T01:17:55;6.65;;;2.22;;
5343;SDS011;2694;48.954;8.928;2023-05-07T01:20:22;4.97;;;2.05;;
5343;SDS011;2694;48.954;8.928;2023-05-07T01:22:51;3.80;;;1.90;;
5343;SDS011;2694;48.954;8.928;2023-05-07T01:25:19;2.50;;;1.90;;
5343;SDS011;2694;48.954;8.928;2023-05-07T01:27:46;6.55;;;1.70;;
5343;SDS011;2694;48.954;8.928;2023-05-07T01:30:14;2.70;;;1.90;;
5343;SDS011;2694;48.954;8.928;2023-05-07T01:32:42;3.28;;;2.53;;
5343;SDS011;2694;48.954;8.928;2023-05-07T01:35:19;3.83;;;1.90;;
5343;SDS011;2694;48.954;8.928;2023-05-07T01:37:48;4.32;;;2.22;;
5343;SDS011;2694;48.954;8.928;2023-05-07T01:40:17;4.60;;;2.40;;
5343;SDS011;2694;48.954;8.928;2023-05-07T01:42:45;6.53;;;2.90;;
5343;SDS011;2694;48.954;8.928;2023-05-07T01:45:13;5.32;;;2.85;;
5343;SDS011;2694;48.954;8.928;2023-05-07T01:47:40;2.47;;;2.17;;
5343;SDS011;2694;48.954;8.928;2023-05-07T01:50:08;5.55;;;2.72;;
5343;SDS011;2694;48.954;8.928;2023-05-07T01:52:36;6.60;;;2.35;;
5343;SDS011;2694;48.954;8.928;2023-05-07T01:55:04;3.80;;;2.20;;
5343;SDS011;2694;48.954;8.928;2023-05-07T01:57:33;5.20;;;2.50;;
5343;SDS011;2694;48.954;8.928;2023-05-07T02:00:00;5.10;;;2.60;;
5343;SDS011;2694;48.954;8.928;2023-05-07T02:02:31;4.18;;;2.30;;
5343;SDS011;2694;48.954;8.928;2023-05-07T02:04:58;4.75;;;2.53;;
5343;SDS011;2694;48.954;8.928;2023-05-07T02:07:26;4.40;;;2.60;;
5343;SDS011;2694;48.954;8.928;2023-05-07T02:09:54;5.25;;;2.47;;
5343;SDS011;2694;48.954;8.928;2023-05-07T02:12:21;5.40;;;2.60;;
5343;SDS011;2694;48.954;8.928;2023-05-07T02:14:49;5.25;;;2.88;;
5343;SDS011;2694;48.954;8.928;2023-05-07T02:17:16;3.60;;;2.30;;
5343;SDS011;2694;48.954;8.928;2023-05-07T02:19:43;4.90;;;2.58;;
5343;SDS011;2694;48.954;8.928;2023-05-07T02:22:11;6.57;;;2.83;;
5343;SDS011;2694;48.954;8.928;2023-05-07T02:24:37;7.50;;;3.00;;
5343;SDS011;2694;48.954;8.928;2023-05-07T02:27:04;4.47;;;2.80;;
5343;SDS011;2694;48.954;8.928;2023-05-07T02:29:31;5.38;;;3.03;;
5343;SDS011;2694;48.954;8.928;2023-05-07T02:32:00;5.35;;;3.10;;
5343;SDS011;2694;48.954;8.928;2023-05-07T02:34:27;4.90;;;2.72;;
5343;SDS011;2694;48.954;8.928;2023-05-07T02:36:54;6.22;;;3.20;;
5343;SDS011;2694;48.954;8.928;2023-05-07T02:39:21;6.50;;;2.90;;
5343;SDS011;2694;48.954;8.928;2023-05-07T02:41:48;5.10;;;2.58;;
5343;SDS011;2694;48.954;8.928;2023-05-07T02:44:15;6.63;;;2.50;;
5343;SDS011;2694;48.954;8.928;2023-05-07T02:46:42;3.35;;;2.53;;
5343;SDS011;2694;48.954;8.928;2023-05-07T02:49:10;4.93;;;2.83;;
5343;SDS011;2694;48.954;8.928;2023-05-07T02:51:37;3.20;;;2.30;;
5343;SDS011;2694;48.954;8.928;2023-05-07T02:54:04;3.47;;;2.50;;
5343;SDS011;2694;48.954;8.928;2023-05-07T02:56:31;2.90;;;2.33;;
5343;SDS011;2694;48.954;8.928;2023-05-07T02:58:58;3.35;;;2.38;;
5343;SDS011;2694;48.954;8.928;2023-05-07T03:01:25;3.60;;;2.60;;
5343;SDS011;2694;48.954;8.928;2023-05-07T03:03:52;3.42;;;2.13;;
5343;SDS011;2694;48.954;8.928;2023-05-07T03:06:21;4.53;;;2.10;;
5343;SDS011;2694;48.954;8.928;2023-05-07T03:08:48;3.20;;;2.10;;
5343;SDS011;2694;48.954;8.928;2023-05-07T03:11:15;2.83;;;2.08;;
5343;SDS011;2694;48.954;8.928;2023-05-07T03:13:42;3.60;;;2.10;;
5343;SDS011;2694;48.954;8.928;2023-05-07T03:16:09;4.30;;;2.10;;
5343;SDS011;2694;48.954;8.928;2023-05-07T03:18:36;3.50;;;1.90;;
5343;SDS011;2694;48.954;8.928;2023-05-07T03:21:03;5.85;;;2.00;;
5343;SDS011;2694;48.954;8.928;2023-05-07T03:23:31;2.30;;;1.90;;
5343;SDS011;2694;48.954;8.928;2023-05-07T03:25:58;4.00;;;2.17;;
5343;SDS011;2694;48.954;8.928;2023-05-07T03:28:25;3.20;;;2.30;;
5343;SDS011;2694;48.954;8.928;2023-05-07T03:30:52;4.50;;;2.20;;
5343;SDS011;2694;48.954;8.928;2023-05-07T03:33:19;6.88;;;2.30;;
5343;SDS011;2694;48.954;8.928;2023-05-07T03:35:46;3.40;;;2.10;;
5343;SDS011;2694;48.954;8.928;2023-05-07T03:38:13;2.83;;;2.13;;
5343;SDS011;2694;48.954;8.928;2023-05-07T03:40:42;3.90;;;2.08;;
5343;SDS011;2694;48.954;8.928;2023-05-07T03:43:09;5.35;;;2.20;;
5343;SDS011;2694;48.954;8.928;2023-05-07T03:45:36;3.35;;;2.60;;
5343;SDS011;2694;48.954;8.928;2023-05-07T03:48:03;3.93;;;2.53;;
5343;SDS011;2694;48.954;8.928;2023-05-07T03:50:30;4.53;;;2.83;;
5343;SDS011;2694;48.954;8.928;2023-05-07T03:52:57;4.40;;;3.10;;
5343;SDS011;2694;48.954;8.928;2023-05-07T03:55:24;3.58;;;2.50;;
5343;SDS011;2694;48.954;8.928;2023-05-07T03:57:53;5.80;;;2.70;;
5343;SDS011;2694;48.954;8.928;2023-05-07T04:00:21;6.60;;;2.90;;
5343;SDS011;2694;48.954;8.928;2023-05-07T04:02:48;6.38;;;2.70;;
5343;SDS011;2694;48.954;8.928;2023-05-07T04:05:15;4.25;;;2.67;;
5343;SDS011;2694;48.954;8.928;2023-05-07T04:07:42;8.10;;;4.60;;
5343;SDS011;2694;48.954;8.928;2023-05-07T04:10:09;6.35;;;3.90;;
5343;SDS011;2694;48.954;8.928;2023-05-07T04:12:36;5.13;;;2.60;;
5343;SDS011;2694;48.954;8.928;2023-05-07T04:15:05;3.40;;;2.45;;
5343;SDS011;2694;48.954;8.928;2023-05-07T04:17:33;6.78;;;3.10;;
5343;SDS011;2694;48.954;8.928;2023-05-07T04:20:02;5.00;;;3.00;;
5343;SDS011;2694;48.954;8.928;2023-05-07T04:22:32;7.85;;;2.85;;
5343;SDS011;2694;48.954;8.928;2023-05-07T04:24:59;5.20;;;3.00;;
5343;SDS011;2694;48.954;8.928;2023-05-07T04:27:27;3.63;;;2.60;;
5343;SDS011;2694;48.954;8.928;2023-05-07T04:29:54;5.68;;;2.90;;
5343;SDS011;2694;48.954;8.928;2023-05-07T04:32:23;9.27;;;3.03;;
5343;SDS011;2694;48.954;8.928;2023-05-07T04:34:51;7.60;;;3.20;;
5343;SDS011;2694;48.954;8.928;2023-05-07T04:37:18;5.40;;;2.90;;
5343;SDS011;2694;48.954;8.928;2023-05-07T04:39:44;5.60;;;2.63;;
5343;SDS011;2694;48.954;8.928;2023-05-07T04:42:14;3.85;;;2.47;;
5343;SDS011;2694;48.954;8.928;2023-05-07T04:44:42;5.53;;;2.50;;
5343;SDS011;2694;48.954;8.928;2023-05-07T04:47:09;6.35;;;2.50;;
5343;SDS011;2694;48.954;8.928;2023-05-07T04:49:38;5.53;;;2.70;;
5343;SDS011;2694;48.954;8.928;2023-05-07T04:52:05;3.40;;;2.10;;
5343;SDS011;2694;48.954;8.928;2023-05-07T04:54:32;2.83;;;2.25;;
5343;SDS011;2694;48.954;8.928;2023-05-07T04:56:59;3.20;;;2.20;;
5343;SDS011;2694;48.954;8.928;2023-05-07T04:59:26;5.18;;;2.50;;
5343;SDS011;2694;48.954;8.928;2023-05-07T05:01:53;3.30;;;2.40;;
5343;SDS011;2694;48.954;8.928;2023-05-07T05:04:20;5.28;;;3.03;;
5343;SDS011;2694;48.954;8.928;2023-05-07T05:06:48;4.30;;;2.90;;
5343;SDS011;2694;48.954;8.928;2023-05-07T05:09:15;4.78;;;2.90;;
5343;SDS011;2694;48.954;8.928;2023-05-07T05:11:42;4.63;;;2.90;;
5343;SDS011;2694;48.954;8.928;2023-05-07T05:14:09;3.80;;;2.63;;
5343;SDS011;2694;48.954;8.928;2023-05-07T05:16:36;3.80;;;2.80;;
5343;SDS011;2694;48.954;8.928;2023-05-07T05:19:03;3.80;;;2.90;;
5343;SDS011;2694;48.954;8.928;2023-05-07T05:21:31;6.03;;;3.70;;
5343;SDS011;2694;48.954;8.928;2023-05-07T05:24:00;4.85;;;3.70;;
5343;SDS011;2694;48.954;8.928;2023-05-07T05:26:27;6.05;;;3.80;;
5343;SDS011;2694;48.954;8.928;2023-05-07T05:28:54;6.47;;;4.30;;
5343;SDS011;2694;48.954;8.928;2023-05-07T05:31:21;6.18;;;4.50;;
5343;SDS011;2694;48.954;8.928;2023-05-07T05:33:48;9.85;;;4.70;;
5343;SDS011;2694;48.954;8.928;2023-05-07T05:36:15;6.50;;;4.30;;
5343;SDS011;2694;48.954;8.928;2023-05-07T05:38:42;7.25;;;4.18;;
5343;SDS011;2694;48.954;8.928;2023-05-07T05:41:11;6.30;;;4.30;;
5343;SDS011;2694;48.954;8.928;2023-05-07T05:43:38;7.50;;;4.20;;
5343;SDS011;2694;48.954;8.928;2023-05-07T05:46:05;8.20;;;3.90;;
5343;SDS011;2694;48.954;8.928;2023-05-07T05:48:33;7.28;;;4.35;;
5343;SDS011;2694;48.954;8.928;2023-05-07T05:51:00;6.50;;;4.30;;
5343;SDS011;2694;48.954;8.928;2023-05-07T05:53:28;8.00;;;4.40;;
5343;SDS011;2694;48.954;8.928;2023-05-07T05:55:55;5.93;;;3.70;;
5343;SDS011;2694;48.954;8.928;2023-05-07T05:58:23;8.52;;;4.18;;
5343;SDS011;2694;48.954;8.928;2023-05-07T06:00:50;5.50;;;3.60;;
5343;SDS011;2694;48.954;8.928;2023-05-07T06:03:18;4.60;;;3.15;;
5343;SDS011;2694;48.954;8.928;2023-05-07T06:05:45;3.65;;;3.10;;
5343;SDS011;2694;48.954;8.928;2023-05-07T06:08:12;7.22;;;3.70;;
5343;SDS011;2694;48.954;8.928;2023-05-07T06:10:39;7.50;;;3.50;;
5343;SDS011;2694;48.954;8.928;2023-05-07T06:13:06;7.25;;;3.80;;
5343;SDS011;2694;48.954;8.928;2023-05-07T06:15:35;6.40;;;3.67;;
5343;SDS011;2694;48.954;8.928;2023-05-07T06:18:02;5.82;;;3.75;;
5343;SDS011;2694;48.954;8.928;2023-05-07T06:20:30;5.32;;;3.20;;
5343;SDS011;2694;48.954;8.928;2023-05-07T06:22:57;5.65;;;3.40;;
5343;SDS011;2694;48.954;8.928;2023-05-07T06:25:24;4.13;;;2.72;;
5343;SDS011;2694;48.954;8.928;2023-05-07T06:27:51;4.80;;;3.10;;
5343;SDS011;2694;48.954;8.928;2023-05-07T06:30:18;5.68;;;3.60;;
5343;SDS011;2694;48.954;8.928;2023-05-07T06:32:47;7.10;;;3.40;;
5343;SDS011;2694;48.954;8.928;2023-05-07T06:35:14;5.38;;;2.80;;
5343;SDS011;2694;48.954;8.928;2023-05-07T06:37:41;4.57;;;2.50;;
5343;SDS011;2694;48.954;8.928;2023-05-07T06:40:09;3.78;;;2.90;;
5343;SDS011;2694;48.954;8.928;2023-05-07T06:42:37;6.38;;;2.83;;
5343;SDS011;2694;48.954;8.928;2023-05-07T06:45:04;3.03;;;2.47;;
5343;SDS011;2694;48.954;8.928;2023-05-07T06:47:35;3.77;;;2.50;;
5343;SDS011;2694;48.954;8.928;2023-05-07T06:50:03;4.63;;;2.88;;
5343;SDS011;2694;48.954;8.928;2023-05-07T06:52:31;5.10;;;2.80;;
5343;SDS011;2694;48.954;8.928;2023-05-07T06:54:59;3.87;;;2.50;;
5343;SDS011;2694;48.954;8.928;2023-05-07T06:57:26;3.27;;;2.53;;
5343;SDS011;2694;48.954;8.928;2023-05-07T06:59:53;3.33;;;2.28;;
5343;SDS011;2694;48.954;8.928;2023-05-07T07:02:21;4.82;;;2.30;;
5343;SDS011;2694;48.954;8.928;2023-05-07T07:04:48;5.40;;;2.08;;
5343;SDS011;2694;48.954;8.928;2023-05-07T07:07:16;5.32;;;2.03;;
5343;SDS011;2694;48.954;8.928;2023-05-07T07:09:43;5.20;;;1.90;;
5343;SDS011;2694;48.954;8.928;2023-05-07T07:12:11;4.50;;;2.50;;
5343;SDS011;2694;48.954;8.928;2023-05-07T07:14:38;3.65;;;2.00;;
5343;SDS011;2694;48.954;8.928;2023-05-07T07:17:05;5.60;;;2.80;;
5343;SDS011;2694;48.954;8.928;2023-05-07T07:19:32;3.10;;;2.00;;
5343;SDS011;2694;48.954;8.928;2023-05-07T07:21:59;2.20;;;1.85;;
5343;SDS011;2694;48.954;8.928;2023-05-07T07:24:29;2.63;;;2.20;;
5343;SDS011;2694;48.954;8.928;2023-05-07T07:26:56;3.65;;;2.20;;
5343;SDS011;2694;48.954;8.928;2023-05-07T07:29:23;3.63;;;2.40;;
5343;SDS011;2694;48.954;8.928;2023-05-07T07:31:51;5.50;;;2.00;;
5343;SDS011;2694;48.954;8.928;2023-05-07T07:34:18;5.13;;;2.40;;
5343;SDS011;2694;48.954;8.928;2023-05-07T07:36:45;5.60;;;2.40;;
5343;SDS011;2694;48.954;8.928;2023-05-07T07:39:12;4.38;;;2.28;;
5343;SDS011;2694;48.954;8.928;2023-05-07T07:41:41;3.85;;;2.30;;
5343;SDS011;2694;48.954;8.928;2023-05-07T07:44:08;3.25;;;2.63;;
5343;SDS011;2694;48.954;8.928;2023-05-07T07:46:37;4.73;;;2.13;;
5343;SDS011;2694;48.954;8.928;2023-05-07T07:49:04;5.53;;;2.50;;
5343;SDS011;2694;48.954;8.928;2023-05-07T07:51:31;3.25;;;2.30;;
5343;SDS011;2694;48.954;8.928;2023-05-07T07:53:58;3.60;;;2.30;;
5343;SDS011;2694;48.954;8.928;2023-05-07T07:56:27;7.28;;;2.75;;
5343;SDS011;2694;48.954;8.928;2023-05-07T07:58:55;5.25;;;2.63;;
5343;SDS011;2694;48.954;8.928;2023-05-07T08:01:22;4.53;;;2.55;;
5343;SDS011;2694;48.954;8.928;2023-05-07T08:03:49;5.37;;;2.60;;
5343;SDS011;2694;48.954;8.928;2023-05-07T08:06:16;3.35;;;2.20;;
5343;SDS011;2694;48.954;8.928;2023-05-07T08:08:44;3.30;;;2.30;;
5343;SDS011;2694;48.954;8.928;2023-05-07T08:11:11;4.90;;;2.40;;
5343;SDS011;2694;48.954;8.928;2023-05-07T08:13:38;2.40;;;2.10;;
5343;SDS011;2694;48.954;8.928;2023-05-07T08:16:06;4.17;;;2.40;;
5343;SDS011;2694;48.954;8.928;2023-05-07T08:18:33;5.90;;;2.63;;
5343;SDS011;2694;48.954;8.928;2023-05-07T08:21:00;3.30;;;2.50;;
5343;SDS011;2694;48.954;8.928;2023-05-07T08:23:27;5.37;;;2.70;;
5343;SDS011;2694;48.954;8.928;2023-05-07T08:25:55;4.60;;;2.30;;
5343;SDS011;2694;48.954;8.928;2023-05-07T08:28:22;5.25;;;2.50;;
5343;SDS011;2694;48.954;8.928;2023-05-07T08:30:50;3.45;;;2.30;;
5343;SDS011;2694;48.954;8.928;2023-05-07T08:33:18;3.67;;;2.10;;
5343;SDS011;2694;48.954;8.928;2023-05-07T08:35:46;4.43;;;2.80;;
5343;SDS011;2694;48.954;8.928;2023-05-07T08:38:13;2.95;;;1.90;;
5343;SDS011;2694;48.954;8.928;2023-05-07T08:40:40;4.70;;;2.25;;
5343;SDS011;2694;48.954;8.928;2023-05-07T08:43:07;3.08;;;2.00;;
5343;SDS011;2694;48.954;8.928;2023-05-07T08:45:34;4.60;;;2.20;;
5343;SDS011;2694;48.954;8.928;2023-05-07T08:48:02;5.60;;;2.70;;
5343;SDS011;2694;48.954;8.928;2023-05-07T08:50:32;4.85;;;2.47;;
5343;SDS011;2694;48.954;8.928;2023-05-07T08:53:02;2.90;;;2.10;;
5343;SDS011;2694;48.954;8.928;2023-05-07T08:55:30;4.18;;;2.70;;
5343;SDS011;2694;48.954;8.928;2023-05-07T08:57:58;6.95;;;2.00;;
5343;SDS011;2694;48.954;8.928;2023-05-07T09:00:25;3.53;;;2.60;;
5343;SDS011;2694;48.954;8.928;2023-05-07T09:02:52;5.60;;;2.70;;
5343;SDS011;2694;48.954;8.928;2023-05-07T09:05:19;6.75;;;2.85;;
5343;SDS011;2694;48.954;8.928;2023-05-07T09:07:48;4.88;;;2.70;;
5343;SDS011;2694;48.954;8.928;2023-05-07T09:10:15;3.05;;;2.35;;
5343;SDS011;2694;48.954;8.928;2023-05-07T09:12:42;5.53;;;2.60;;
5343;SDS011;2694;48.954;8.928;2023-05-07T09:15:10;7.93;;;2.70;;
5343;SDS011;2694;48.954;8.928;2023-05-07T09:17:37;4.20;;;2.60;;
5343;SDS011;2694;48.954;8.928;2023-05-07T09:20:06;8.13;;;3.13;;
5343;SDS011;2694;48.954;8.928;2023-05-07T09:22:35;4.72;;;2.70;;
5343;SDS011;2694;48.954;8.928;2023-05-07T09:25:05;4.65;;;2.67;;
5343;SDS011;2694;48.954;8.928;2023-05-07T09:27:33;5.90;;;2.63;;
5343;SDS011;2694;48.954;8.928;2023-05-07T09:30:02;4.40;;;2.97;;
5343;SDS011;2694;48.954;8.928;2023-05-07T09:32:33;5.28;;;2.90;;
5343;SDS011;2694;48.954;8.928;2023-05-07T09:35:01;4.35;;;2.03;;
5343;SDS011;2694;48.954;8.928;2023-05-07T09:37:28;6.88;;;2.63;;
5343;SDS011;2694;48.954;8.928;2023-05-07T09:39:56;5.60;;;2.50;;
5343;SDS011;2694;48.954;8.928;2023-05-07T09:42:25;4.50;;;2.42;;
5343;SDS011;2694;48.954;8.928;2023-05-07T09:44:53;4.03;;;2.90;;
5343;SDS011;2694;48.954;8.928;2023-05-07T09:47:20;4.50;;;2.20;;
5343;SDS011;2694;48.954;8.928;2023-05-07T09:49:49;7.65;;;2.70;;
5343;SDS011;2694;48.954;8.928;2023-05-07T09:52:19;3.10;;;2.20;;
5343;SDS011;2694;48.954;8.928;2023-05-07T09:54:46;4.47;;;2.50;;
5343;SDS011;2694;48.954;8.928;2023-05-07T09:57:14;5.32;;;2.50;;
5343;SDS011;2694;48.954;8.928;2023-05-07T09:59:44;3.50;;;2.30;;
5343;SDS011;2694;48.954;8.928;2023-05-07T10:02:13;4.53;;;2.60;;
5343;SDS011;2694;48.954;8.928;2023-05-07T10:04:41;2.95;;;2.25;;
5343;SDS011;2694;48.954;8.928;2023-05-07T10:07:09;5.05;;;2.67;;
5343;SDS011;2694;48.954;8.928;2023-05-07T10:09:38;6.57;;;2.42;;
5343;SDS011;2694;48.954;8.928;2023-05-07T10:12:08;5.70;;;3.20;;
5343;SDS011;2694;48.954;8.928;2023-05-07T10:14:36;3.05;;;2.05;;
5343;SDS011;2694;48.954;8.928;2023-05-07T10:17:05;6.20;;;2.20;;
5343;SDS011;2694;48.954;8.928;2023-05-07T10:19:33;5.20;;;2.80;;
5343;SDS011;2694;48.954;8.928;2023-05-07T10:22:02;4.57;;;2.50;;
5343;SDS011;2694;48.954;8.928;2023-05-07T10:24:32;9.13;;;4.50;;
5343;SDS011;2694;48.954;8.928;2023-05-07T10:27:00;4.93;;;2.63;;
5343;SDS011;2694;48.954;8.928;2023-05-07T10:29:33;2.80;;;2.10;;
5343;SDS011;2694;48.954;8.928;2023-05-07T10:32:17;3.28;;;2.40;;
5343;SDS011;2694;48.954;8.928;2023-05-07T10:34:56;3.78;;;2.08;;
5343;SDS011;2694;48.954;8.928;2023-05-07T10:37:27;5.70;;;2.60;;
5343;SDS011;2694;48.954;8.928;2023-05-07T10:39:55;5.72;;;2.53;;
5343;SDS011;2694;48.954;8.928;2023-05-07T10:42:22;5.18;;;2.33;;
5343;SDS011;2694;48.954;8.928;2023-05-07T10:44:50;3.50;;;2.08;;
5343;SDS011;2694;48.954;8.928;2023-05-07T10:47:18;3.55;;;1.98;;
5343;SDS011;2694;48.954;8.928;2023-05-07T10:58:52;3.05;;;1.80;;
5343;SDS011;2694;48.954;8.928;2023-05-07T11:04:18;4.97;;;2.13;;
5343;SDS011;2694;48.954;8.928;2023-05-07T11:10:03;2.35;;;1.85;;
5343;SDS011;2694;48.954;8.928;2023-05-07T11:12:47;3.03;;;2.00;;
5343;SDS011;2694;48.954;8.928;2023-05-07T11:15:34;3.07;;;1.80;;
5343;SDS011;2694;48.954;8.928;2023-05-07T11:18:03;4.63;;;1.80;;
5343;SDS011;2694;48.954;8.928;2023-05-07T11:26:21;4.57;;;1.70;;
5343;SDS011;2694;48.954;8.928;2023-05-07T11:28:48;3.22;;;1.70;;
5343;SDS011;2694;48.954;8.928;2023-05-07T11:31:17;3.35;;;1.50;;
5343;SDS011;2694;48.954;8.928;2023-05-07T11:33:47;4.03;;;1.60;;
5343;SDS011;2694;48.954;8.928;2023-05-07T11:36:16;3.88;;;1.75;;
5343;SDS011;2694;48.954;8.928;2023-05-07T11:38:45;3.80;;;1.70;;
5343;SDS011;2694;48.954;8.928;2023-05-07T11:41:12;2.80;;;2.10;;
5343;SDS011;2694;48.954;8.928;2023-05-07T11:43:53;3.95;;;1.70;;
5343;SDS011;2694;48.954;8.928;2023-05-07T11:46:21;3.20;;;1.83;;
5343;SDS011;2694;48.954;8.928;2023-05-07T11:48:48;5.38;;;2.05;;
5343;SDS011;2694;48.954;8.928;2023-05-07T11:51:19;2.20;;;1.60;;
5343;SDS011;2694;48.954;8.928;2023-05-07T11:53:47;3.58;;;1.50;;
5343;SDS011;2694;48.954;8.928;2023-05-07T11:56:15;2.78;;;1.80;;
5343;SDS011;2694;48.954;8.928;2023-05-07T11:58:44;3.13;;;1.70;;
5343;SDS011;2694;48.954;8.928;2023-05-07T12:01:13;3.25;;;1.80;;
5343;SDS011;2694;48.954;8.928;2023-05-07T12:03:41;4.05;;;1.70;;
5343;SDS011;2694;48.954;8.928;2023-05-07T12:06:11;2.50;;;1.48;;
5343;SDS011;2694;48.954;8.928;2023-05-07T12:08:40;4.25;;;1.60;;
5343;SDS011;2694;48.954;8.928;2023-05-07T12:11:08;2.60;;;1.60;;
5343;SDS011;2694;48.954;8.928;2023-05-07T12:13:36;2.97;;;1.35;;
5343;SDS011;2694;48.954;8.928;2023-05-07T12:16:05;2.90;;;1.30;;
5343;SDS011;2694;48.954;8.928;2023-05-07T12:18:33;2.95;;;1.40;;
5343;SDS011;2694;48.954;8.928;2023-05-07T12:21:02;2.88;;;1.30;;
5343;SDS011;2694;48.954;8.928;2023-05-07T12:23:31;2.38;;;1.50;;
5343;SDS011;2694;48.954;8.928;2023-05-07T12:26:00;3.00;;;1.42;;
5343;SDS011;2694;48.954;8.928;2023-05-07T12:28:27;3.97;;;1.60;;
5343;SDS011;2694;48.954;8.928;2023-05-07T12:30:55;3.40;;;1.50;;
5343;SDS011;2694;48.954;8.928;2023-05-07T12:33:24;2.65;;;1.58;;
5343;SDS011;2694;48.954;8.928;2023-05-07T12:35:53;3.55;;;1.77;;
5343;SDS011;2694;48.954;8.928;2023-05-07T12:38:21;2.60;;;1.30;;
5343;SDS011;2694;48.954;8.928;2023-05-07T12:40:49;3.80;;;1.60;;
5343;SDS011;2694;48.954;8.928;2023-05-07T12:43:19;4.55;;;1.48;;
5343;SDS011;2694;48.954;8.928;2023-05-07T12:45:48;4.40;;;1.00;;
5343;SDS011;2694;48.954;8.928;2023-05-07T12:48:17;2.70;;;1.30;;
5343;SDS011;2694;48.954;8.928;2023-05-07T12:50:48;4.28;;;1.40;;
5343;SDS011;2694;48.954;8.928;2023-05-07T12:53:15;3.10;;;1.42;;
5343;SDS011;2694;48.954;8.928;2023-05-07T12:55:44;3.80;;;1.50;;
5343;SDS011;2694;48.954;8.928;2023-05-07T12:58:15;3.53;;;1.63;;
5343;SDS011;2694;48.954;8.928;2023-05-07T13:00:44;2.38;;;1.30;;
5343;SDS011;2694;48.954;8.928;2023-05-07T13:03:16;3.40;;;1.60;;
5343;SDS011;2694;48.954;8.928;2023-05-07T13:05:48;2.80;;;1.50;;
5343;SDS011;2694;48.954;8.928;2023-05-07T13:08:23;3.30;;;2.03;;
5343;SDS011;2694;48.954;8.928;2023-05-07T13:10:53;6.30;;;1.67;;
5343;SDS011;2694;48.954;8.928;2023-05-07T13:13:20;4.45;;;1.55;;
5343;SDS011;2694;48.954;8.928;2023-05-07T13:15:49;4.30;;;1.70;;
5343;SDS011;2694;48.954;8.928;2023-05-07T13:18:16;2.67;;;1.50;;
5343;SDS011;2694;48.954;8.928;2023-05-07T13:20:43;9.18;;;2.30;;
5343;SDS011;2694;48.954;8.928;2023-05-07T13:23:10;4.85;;;2.97;;
5343;SDS011;2694;48.954;8.928;2023-05-07T13:25:37;3.42;;;1.70;;
5343;SDS011;2694;48.954;8.928;2023-05-07T13:28:04;2.50;;;2.03;;
5343;SDS011;2694;48.954;8.928;2023-05-07T13:30:31;4.30;;;2.30;;
5343;SDS011;2694;48.954;8.928;2023-05-07T13:33:00;8.00;;;2.58;;
5343;SDS011;2694;48.954;8.928;2023-05-07T13:35:27;2.67;;;1.90;;
5343;SDS011;2694;48.954;8.928;2023-05-07T13:37:54;3.00;;;1.80;;
5343;SDS011;2694;48.954;8.928;2023-05-07T13:40:21;3.20;;;1.40;;
5343;SDS011;2694;48.954;8.928;2023-05-07T13:42:48;5.30;;;1.67;;
5343;SDS011;2694;48.954;8.928;2023-05-07T13:45:16;2.38;;;1.15;;
5343;SDS011;2694;48.954;8.928;2023-05-07T13:47:43;2.10;;;1.10;;
5343;SDS011;2694;48.954;8.928;2023-05-07T13:50:12;2.75;;;1.30;;
5343;SDS011;2694;48.954;8.928;2023-05-07T13:52:40;2.78;;;1.60;;
5343;SDS011;2694;48.954;8.928;2023-05-07T13:55:10;7.03;;;1.80;;
5343;SDS011;2694;48.954;8.928;2023-05-07T13:57:38;11.68;;;3.05;;
5343;SDS011;2694;48.954;8.928;2023-05-07T14:00:05;10.55;;;2.20;;
5343;SDS011;2694;48.954;8.928;2023-05-07T14:02:33;6.15;;;2.17;;
5343;SDS011;2694;48.954;8.928;2023-05-07T14:05:00;5.43;;;1.90;;
5343;SDS011;2694;48.954;8.928;2023-05-07T14:07:29;5.93;;;2.40;;
5343;SDS011;2694;48.954;8.928;2023-05-07T14:09:56;6.10;;;2.20;;
5343;SDS011;2694;48.954;8.928;2023-05-07T14:12:23;3.85;;;2.35;;
5343;SDS011;2694;48.954;8.928;2023-05-07T14:14:50;6.60;;;2.20;;
5343;SDS011;2694;48.954;8.928;2023-05-07T14:17:18;5.68;;;2.70;;
5343;SDS011;2694;48.954;8.928;2023-05-07T14:19:45;5.50;;;2.40;;
5343;SDS011;2694;48.954;8.928;2023-05-07T14:22:13;3.53;;;1.90;;
5343;SDS011;2694;48.954;8.928;2023-05-07T14:24:41;6.50;;;2.35;;
5343;SDS011;2694;48.954;8.928;2023-05-07T14:27:08;11.45;;;2.78;;
5343;SDS011;2694;48.954;8.928;2023-05-07T14:29:35;9.10;;;3.00;;
5343;SDS011;2694;48.954;8.928;2023-05-07T14:32:02;4.03;;;2.40;;
5343;SDS011;2694;48.954;8.928;2023-05-07T14:34:30;8.85;;;2.85;;
5343;SDS011;2694;48.954;8.928;2023-05-07T14:36:57;6.90;;;2.50;;
5343;SDS011;2694;48.954;8.928;2023-05-07T14:39:26;5.78;;;2.75;;
5343;SDS011;2694;48.954;8.928;2023-05-07T14:41:54;10.70;;;4.03;;
5343;SDS011;2694;48.954;8.928;2023-05-07T14:44:23;6.05;;;2.60;;
5343;SDS011;2694;48.954;8.928;2023-05-07T14:46:50;6.32;;;2.53;;
5343;SDS011;2694;48.954;8.928;2023-05-07T14:49:17;7.90;;;2.30;;
5343;SDS011;2694;48.954;8.928;2023-05-07T14:51:44;5.03;;;2.30;;
5343;SDS011;2694;48.954;8.928;2023-05-07T14:54:11;4.97;;;2.53;;
5343;SDS011;2694;48.954;8.928;2023-05-07T14:56:39;6.75;;;2.45;;
5343;SDS011;2694;48.954;8.928;2023-05-07T14:59:08;5.03;;;2.10;;
5343;SDS011;2694;48.954;8.928;2023-05-07T15:01:36;6.50;;;3.50;;
5343;SDS011;2694;48.954;8.928;2023-05-07T15:04:03;3.70;;;1.70;;
5343;SDS011;2694;48.954;8.928;2023-05-07T15:06:30;3.55;;;1.90;;
5343;SDS011;2694;48.954;8.928;2023-05-07T15:08:58;5.20;;;1.80;;
5343;SDS011;2694;48.954;8.928;2023-05-07T15:11:25;2.90;;;2.10;;
5343;SDS011;2694;48.954;8.928;2023-05-07T15:13:52;7.10;;;2.15;;
5343;SDS011;2694;48.954;8.928;2023-05-07T15:16:21;4.40;;;1.80;;
5343;SDS011;2694;48.954;8.928;2023-05-07T15:18:48;3.43;;;1.87;;
5343;SDS011;2694;48.954;8.928;2023-05-07T15:21:15;4.43;;;2.47;;
5343;SDS011;2694;48.954;8.928;2023-05-07T15:23:42;4.20;;;2.10;;
5343;SDS011;2694;48.954;8.928;2023-05-07T15:26:10;3.30;;;1.70;;
5343;SDS011;2694;48.954;8.928;2023-05-07T15:28:37;6.68;;;2.00;;
5343;SDS011;2694;48.954;8.928;2023-05-07T15:31:04;8.68;;;2.50;;
5343;SDS011;2694;48.954;8.928;2023-05-07T15:33:33;4.30;;;2.15;;
5343;SDS011;2694;48.954;8.928;2023-05-07T15:36:00;3.70;;;2.20;;
5343;SDS011;2694;48.954;8.928;2023-05-07T15:38:28;4.80;;;2.00;;
5343;SDS011;2694;48.954;8.928;2023-05-07T15:40:55;3.78;;;2.03;;